Desert Springs, Nevada Weather observations

Data are for 10 minute period ending at time listed.
 Day   Time    Ave.   Ave.  Ave.  Vector   Max.   Total    Solar   
  of    of     Air    Rel.  Wind   Wind    Wind  Precip.   Rad.    
Year   Day     Temp.  Hum.  Speed  Dir.    Gust                    
2016   (PST)    F      %     mph   deg.    mph     in.     W/m2    
------------------------------------------------------------------- 
 274    0:00   63.0    33    8.0   183     16.0    4.57       0  
 274    1:00   62.0    33    4.0   197     12.0    4.57       0  
 274    2:00   61.0    34    4.0   208     10.0    4.57       0  
 274    3:00   59.0    36    3.0   305     10.0    4.57       0  
 274    4:00   57.0    38    4.0   133      6.0    4.57       0  
 274    5:00   59.0    38    3.0   167      6.0    4.57       0  
 274    6:00   58.0    32    6.0   202     11.0    4.57       0  
 274    7:00   61.0    27    5.0   177      7.0    4.57      33  
 274    8:00   65.0    26    6.0   162     13.0    4.57     247  
 274    9:00   67.0    27    9.0   147     17.0    4.57     450  
 274   10:00   70.0    27   10.0   214     17.0    4.57     609  
 274   11:00   72.0    22   16.0   225     27.0    4.57     745  
 274   12:00   73.0    20   20.0   237     38.0    4.57     814  
 274   13:00   73.0    18   21.0   245     35.0    4.57     788  
 274   14:00   74.0    18   22.0   249     34.0    4.57     662  
 274   15:00   74.0    19   19.0   257     37.0    4.57     650  
 274   16:00   72.0    20   20.0   249     31.0    4.57     489  
 274   17:00   70.0    22   21.0   261     29.0    4.57     293  
 274   18:00   64.0    27   11.0   266     28.0    4.57      66  
 274   19:00   60.0    29   11.0   301     17.0    4.57       1  
 274   20:00   58.0    31    8.0   299     17.0    4.57       0  
 274   21:00   56.0    34    4.0   259      8.0    4.57       0  
 274   22:00   55.0    34    5.0   282     10.0    4.57       0  
 274   23:00   54.0    33    6.0   296     11.0    4.57       0  

Return to Desert Springs, Nevada graphs page.


Western Regional Climate Center,wrcc@dri.edu